Time;durP1;ratioP1;P1;durP2;ratioP2;P2;SDS_P1;SDS_P2;PMS_P1;PMS_P2;Temp;Humidity;BMP_temperature;BMP_pressure;BME280_temperature;BME280_humidity;BME280_pressure;Samples;Min_cycle;Max_cycle;Signal;HPM_P1;HPM_P2
2021/12/23 00:01:22;;;;;;;;;;;-4.50;99.90;;;;;;5084793;28;19956;-86
2021/12/23 00:03:47;;;;;;;;;;;-4.50;99.90;;;;;;5081237;28;20015;-87
2021/12/23 00:06:13;;;;;;;;;;;-4.50;99.90;;;;;;5086825;28;19943;-86
2021/12/23 00:08:38;;;;;;;;;;;-4.40;99.90;;;;;;5047011;28;19919;-89
2021/12/23 00:11:04;;;;;;;;;;;-4.40;99.90;;;;;;5083053;28;19955;-84
2021/12/23 00:13:33;;;;;;;;;;;-4.40;99.90;;;;;;5085374;28;19931;-86
2021/12/23 00:23:46;;;;;;;;;;;-4.40;99.90;;;;;;5070815;28;19919;-85
2021/12/23 00:26:12;;;;;;;;;;;-4.40;99.90;;;;;;5070282;28;19920;-86
2021/12/23 00:28:38;;;;;;;;;;;-4.40;99.90;;;;;;5067657;28;19916;-85
2021/12/23 00:31:04;;;;;;;;;;;-4.30;99.90;;;;;;5083821;28;20288;-84
2021/12/23 00:33:30;;;;;;;;;;;-4.40;99.90;;;;;;5081126;28;19909;-85
2021/12/23 00:35:56;;;;;;;;;;;-4.50;99.90;;;;;;5086250;28;19919;-85
2021/12/23 00:38:27;;;;;;;;;;;-4.50;99.90;;;;;;5083542;28;19920;-86
2021/12/23 00:40:53;;;;;;;;;;;-4.50;99.90;;;;;;5081589;28;19912;-87
2021/12/23 00:43:20;;;;;;;;;;;-4.50;99.90;;;;;;5046873;28;20003;-88
2021/12/23 00:45:47;;;;;;;;;;;-4.50;99.90;;;;;;5062229;28;19953;-84
2021/12/23 00:48:12;;;;;;;;;;;-4.50;99.90;;;;;;5081618;28;20310;-87
2021/12/23 00:50:38;;;;;;;;;;;-4.60;99.90;;;;;;5067456;28;19912;-85
2021/12/23 00:53:07;;;;;;;;;;;-4.50;99.90;;;;;;5068053;28;19912;-84
2021/12/23 00:55:33;;;;;;;;;;;-4.60;99.90;;;;;;5085765;28;19908;-86
2021/12/23 00:57:59;;;;;;;;;;;-4.60;99.90;;;;;;5067449;28;19923;-86
2021/12/23 01:00:25;;;;;;;;;;;-4.70;99.90;;;;;;5084842;28;19911;-86
2021/12/23 01:02:51;;;;;;;;;;;-4.60;99.90;;;;;;5081170;28;19978;-87
2021/12/23 01:05:18;;;;;;;;;;;-4.60;99.90;;;;;;5067278;28;20674;-88
2021/12/23 01:07:44;;;;;;;;;;;-4.70;99.90;;;;;;5068854;28;19913;-85
2021/12/23 01:10:10;;;;;;;;;;;-4.70;99.90;;;;;;5080297;28;20316;-84
2021/12/23 01:12:43;;;;;;;;;;;-4.70;99.90;;;;;;5082212;28;19978;-86
2021/12/23 01:20:20;;;;;;;;;;;-4.60;99.90;;;;;;5068673;28;19943;-83
2021/12/23 01:22:46;;;;;;;;;;;-4.60;99.90;;;;;;5048076;28;19908;-87
2021/12/23 01:25:12;;;;;;;;;;;-4.50;99.90;;;;;;5066737;28;20412;-83
2021/12/23 01:27:37;;;;;;;;;;;-4.40;99.90;;;;;;5095766;28;19916;-84
2021/12/23 01:30:04;;;;;;;;;;;-4.40;99.90;;;;;;5096867;28;19908;-84
2021/12/23 01:32:29;;;;;;;;;;;-4.40;99.90;;;;;;5070909;28;19912;-86
2021/12/23 01:34:55;;;;;;;;;;;-4.40;99.90;;;;;;5087984;28;20429;-88
2021/12/23 01:37:20;;;;;;;;;;;-4.40;99.90;;;;;;5087988;28;20336;-84
2021/12/23 01:39:46;;;;;;;;;;;-4.30;99.90;;;;;;5065608;28;20424;-87
2021/12/23 01:42:12;;;;;;;;;;;-4.30;99.90;;;;;;5086371;28;20259;-84
2021/12/23 01:44:37;;;;;;;;;;;-4.20;99.90;;;;;;5088511;28;19922;-88
2021/12/23 01:47:03;;;;;;;;;;;-4.30;99.90;;;;;;5070660;28;20294;-85
2021/12/23 01:49:28;;;;;;;;;;;-4.20;99.90;;;;;;5069900;28;20374;-86
2021/12/23 01:51:54;;;;;;;;;;;-4.10;99.90;;;;;;5071797;28;19912;-85
2021/12/23 01:54:19;;;;;;;;;;;-4.10;99.90;;;;;;5086279;28;19918;-84
2021/12/23 01:56:45;;;;;;;;;;;-4.10;99.90;;;;;;5092681;28;19920;-84
2021/12/23 01:59:11;;;;;;;;;;;-4.00;99.90;;;;;;5075256;28;19912;-87
2021/12/23 02:01:41;;;;;;;;;;;-4.00;99.90;;;;;;5084997;28;19912;-89
2021/12/23 02:04:07;;;;;;;;;;;-4.00;99.90;;;;;;5067554;28;19912;-85
2021/12/23 02:06:32;;;;;;;;;;;-4.00;99.90;;;;;;5087982;28;19960;-86
2021/12/23 02:08:58;;;;;;;;;;;-4.00;99.90;;;;;;5084600;28;19960;-87
2021/12/23 02:11:24;;;;;;;;;;;-3.90;99.90;;;;;;5069273;28;19978;-84
2021/12/23 02:13:50;;;;;;;;;;;-3.90;99.90;;;;;;5084862;28;19916;-84
2021/12/23 02:16:15;;;;;;;;;;;-3.80;99.90;;;;;;5087726;28;19920;-85
2021/12/23 02:18:41;;;;;;;;;;;-3.80;99.90;;;;;;5087574;28;19908;-86
2021/12/23 02:21:07;;;;;;;;;;;-3.70;99.90;;;;;;5084996;28;19915;-87
2021/12/23 02:23:33;;;;;;;;;;;-3.80;99.90;;;;;;5086054;28;19971;-86
2021/12/23 02:25:59;;;;;;;;;;;-3.80;99.90;;;;;;5086048;28;19950;-86
2021/12/23 02:28:26;;;;;;;;;;;-3.90;99.90;;;;;;5069849;28;19951;-84
2021/12/23 02:30:51;;;;;;;;;;;-3.90;99.90;;;;;;5086546;28;19912;-86
2021/12/23 02:33:18;;;;;;;;;;;-3.90;99.90;;;;;;5083301;28;19981;-87
2021/12/23 02:35:44;;;;;;;;;;;-3.90;99.90;;;;;;5087814;28;19973;-86
2021/12/23 02:38:09;;;;;;;;;;;-3.90;99.90;;;;;;5090875;28;20378;-85
2021/12/23 02:40:36;;;;;;;;;;;-3.90;99.90;;;;;;5084132;28;20367;-87
2021/12/23 02:43:19;;;;;;;;;;;-3.90;99.90;;;;;;5084068;28;19998;-86
2021/12/23 02:45:46;;;;;;;;;;;-3.90;99.90;;;;;;5071684;28;19920;-86
2021/12/23 02:48:13;;;;;;;;;;;-3.90;99.90;;;;;;5086844;28;19915;-86
2021/12/23 02:50:39;;;;;;;;;;;-3.90;99.90;;;;;;5084526;28;19923;-88
2021/12/23 02:53:04;;;;;;;;;;;-3.80;99.90;;;;;;5086589;28;19912;-86
2021/12/23 02:55:31;;;;;;;;;;;-3.80;99.90;;;;;;5085733;28;19919;-87
2021/12/23 02:57:57;;;;;;;;;;;-3.70;99.90;;;;;;5065021;28;19927;-86
2021/12/23 03:00:23;;;;;;;;;;;-3.70;99.90;;;;;;5085901;28;19908;-86
2021/12/23 03:02:49;;;;;;;;;;;-3.70;99.90;;;;;;5082847;28;19904;-87
2021/12/23 03:05:14;;;;;;;;;;;-3.70;99.90;;;;;;5086599;28;19928;-86
2021/12/23 03:07:40;;;;;;;;;;;-3.80;99.90;;;;;;5084343;28;19951;-85
2021/12/23 03:10:07;;;;;;;;;;;-3.90;99.90;;;;;;5084275;28;20006;-86
2021/12/23 03:12:32;;;;;;;;;;;-3.80;99.90;;;;;;5086716;28;19915;-88
2021/12/23 03:14:59;;;;;;;;;;;-3.80;99.90;;;;;;5086231;28;19916;-87
2021/12/23 03:17:24;;;;;;;;;;;-3.80;99.90;;;;;;5064407;28;19952;-85
2021/12/23 03:19:50;;;;;;;;;;;-3.80;99.90;;;;;;5067432;28;20000;-84
2021/12/23 03:22:16;;;;;;;;;;;-3.70;99.90;;;;;;5082988;28;19960;-85
2021/12/23 03:24:41;;;;;;;;;;;-3.80;99.90;;;;;;5084084;28;20351;-87
2021/12/23 03:27:07;;;;;;;;;;;-3.70;99.90;;;;;;5069297;28;19919;-84
2021/12/23 03:29:32;;;;;;;;;;;-3.70;99.90;;;;;;5067311;28;19978;-86
2021/12/23 03:31:58;;;;;;;;;;;-3.70;99.90;;;;;;5084550;28;20434;-84
2021/12/23 03:34:23;;;;;;;;;;;-3.70;99.90;;;;;;5085849;28;19935;-87
2021/12/23 03:36:49;;;;;;;;;;;-3.70;99.90;;;;;;5049947;28;19917;-87
2021/12/23 03:39:15;;;;;;;;;;;-3.70;99.90;;;;;;5085263;28;19912;-87
2021/12/23 03:41:40;;;;;;;;;;;-3.70;99.90;;;;;;5064459;28;19917;-86
2021/12/23 03:44:06;;;;;;;;;;;-3.70;99.90;;;;;;5063034;28;20058;-87
2021/12/23 03:46:32;;;;;;;;;;;-3.80;99.90;;;;;;5067501;28;19921;-86
2021/12/23 03:48:57;;;;;;;;;;;-3.80;99.90;;;;;;5064510;28;19912;-87
2021/12/23 03:51:23;;;;;;;;;;;-3.70;99.90;;;;;;5063592;28;19919;-86
2021/12/23 03:53:48;;;;;;;;;;;-3.70;99.90;;;;;;5063067;28;19908;-85
2021/12/23 03:56:15;;;;;;;;;;;-3.70;99.90;;;;;;5063393;28;19998;-88
2021/12/23 03:58:40;;;;;;;;;;;-3.70;99.90;;;;;;5065848;28;19916;-86
2021/12/23 04:01:06;;;;;;;;;;;-3.70;99.90;;;;;;5063240;28;19966;-84
2021/12/23 04:03:32;;;;;;;;;;;-3.70;99.90;;;;;;5062808;28;20372;-84
2021/12/23 04:05:57;;;;;;;;;;;-3.70;99.90;;;;;;5057644;28;19912;-87
2021/12/23 04:08:23;;;;;;;;;;;-3.70;99.90;;;;;;5064909;28;19909;-85
2021/12/23 04:10:48;;;;;;;;;;;-3.70;99.90;;;;;;5059554;28;20291;-84
2021/12/23 04:13:14;;;;;;;;;;;-3.60;99.90;;;;;;5065365;28;20290;-86
2021/12/23 04:15:40;;;;;;;;;;;-3.70;99.90;;;;;;5063985;28;20359;-85
2021/12/23 04:18:06;;;;;;;;;;;-3.60;99.90;;;;;;5062237;28;20399;-84
2021/12/23 04:20:46;;;;;;;;;;;-3.70;99.90;;;;;;5063706;28;19912;-84
2021/12/23 04:23:12;;;;;;;;;;;-3.70;99.90;;;;;;5066747;28;19919;-86
2021/12/23 04:25:37;;;;;;;;;;;-3.70;99.90;;;;;;5061255;28;20108;-85
2021/12/23 04:28:03;;;;;;;;;;;-3.70;99.90;;;;;;5061583;28;20360;-85
2021/12/23 04:30:30;;;;;;;;;;;-3.80;99.90;;;;;;5062271;28;20327;-86
2021/12/23 04:32:55;;;;;;;;;;;-3.90;99.90;;;;;;5063496;28;19934;-84
2021/12/23 04:35:21;;;;;;;;;;;-3.80;99.90;;;;;;5060931;28;19908;-86
2021/12/23 04:37:46;;;;;;;;;;;-3.80;99.90;;;;;;5065360;28;19920;-86
2021/12/23 04:40:12;;;;;;;;;;;-3.80;99.90;;;;;;5061735;28;20280;-88
2021/12/23 04:42:38;;;;;;;;;;;-3.80;99.90;;;;;;5081153;28;19927;-85
2021/12/23 04:45:04;;;;;;;;;;;-3.80;99.90;;;;;;5063516;28;20314;-86
2021/12/23 04:47:30;;;;;;;;;;;-3.80;99.90;;;;;;5084018;28;19942;-85
2021/12/23 04:49:56;;;;;;;;;;;-3.70;99.90;;;;;;5088124;28;19908;-83
2021/12/23 04:52:22;;;;;;;;;;;-3.80;99.90;;;;;;5075939;28;19938;-83
2021/12/23 04:54:47;;;;;;;;;;;-3.80;99.90;;;;;;5104804;28;19905;-85
2021/12/23 04:57:13;;;;;;;;;;;-3.80;99.90;;;;;;5105939;28;19916;-83
2021/12/23 04:59:38;;;;;;;;;;;-3.80;99.90;;;;;;5085943;28;19914;-86
2021/12/23 05:02:04;;;;;;;;;;;-3.80;99.90;;;;;;5070959;28;19944;-87
2021/12/23 05:04:30;;;;;;;;;;;-3.70;99.90;;;;;;5084855;28;19962;-83
2021/12/23 05:06:55;;;;;;;;;;;-3.70;99.90;;;;;;5080617;28;19974;-86
2021/12/23 05:09:21;;;;;;;;;;;-3.70;99.90;;;;;;5092669;28;19922;-85
2021/12/23 05:11:46;;;;;;;;;;;-3.70;99.90;;;;;;5111364;28;19967;-84
2021/12/23 05:14:12;;;;;;;;;;;-3.80;99.90;;;;;;5095986;28;20054;-86
2021/12/23 05:16:37;;;;;;;;;;;-3.80;99.90;;;;;;5086614;28;19931;-88
2021/12/23 05:19:03;;;;;;;;;;;-3.80;99.90;;;;;;5088497;28;19912;-87
2021/12/23 05:21:29;;;;;;;;;;;-3.80;99.90;;;;;;5067049;28;19908;-87
2021/12/23 05:23:54;;;;;;;;;;;-3.80;99.90;;;;;;5085743;28;19912;-84
2021/12/23 05:26:20;;;;;;;;;;;-3.80;99.90;;;;;;5070392;28;19912;-87
2021/12/23 05:28:45;;;;;;;;;;;-3.80;99.90;;;;;;5066452;28;19912;-86
2021/12/23 05:31:11;;;;;;;;;;;-3.80;99.90;;;;;;5069079;28;20359;-89
2021/12/23 05:33:36;;;;;;;;;;;-3.70;99.90;;;;;;5068393;28;19916;-88
2021/12/23 05:36:02;;;;;;;;;;;-3.80;99.90;;;;;;5070350;28;19908;-88
2021/12/23 05:38:28;;;;;;;;;;;-3.90;99.90;;;;;;5084390;28;19967;-87
2021/12/23 05:40:53;;;;;;;;;;;-3.90;99.90;;;;;;5066085;28;19908;-85
2021/12/23 05:43:19;;;;;;;;;;;-3.90;99.90;;;;;;5063278;28;19966;-87
2021/12/23 05:45:44;;;;;;;;;;;-3.90;99.90;;;;;;5066305;28;19974;-86
2021/12/23 05:48:10;;;;;;;;;;;-3.90;99.90;;;;;;5047973;28;20007;-86
2021/12/23 05:50:37;;;;;;;;;;;-3.90;99.90;;;;;;5063971;28;19999;-85
2021/12/23 05:53:02;;;;;;;;;;;-3.90;99.90;;;;;;5069616;28;19909;-86
2021/12/23 05:55:28;;;;;;;;;;;-3.80;99.90;;;;;;5065943;28;19928;-86
2021/12/23 05:57:53;;;;;;;;;;;-3.80;99.90;;;;;;5067955;28;19924;-89
2021/12/23 06:00:26;;;;;;;;;;;-3.80;99.90;;;;;;5071615;28;19919;-86
2021/12/23 06:02:52;;;;;;;;;;;-3.90;99.90;;;;;;5072408;28;20432;-84
2021/12/23 06:05:18;;;;;;;;;;;-3.90;99.90;;;;;;5069526;28;19913;-85
2021/12/23 06:07:44;;;;;;;;;;;-3.90;99.90;;;;;;5067892;28;19999;-86
2021/12/23 06:10:09;;;;;;;;;;;-3.90;99.90;;;;;;5070877;28;19920;-87
2021/12/23 06:12:35;;;;;;;;;;;-3.80;99.90;;;;;;5071266;28;19912;-88
2021/12/23 06:15:01;;;;;;;;;;;-3.80;99.90;;;;;;5064687;28;20388;-83
2021/12/23 06:17:26;;;;;;;;;;;-3.80;99.90;;;;;;5067720;28;20413;-88
2021/12/23 06:19:52;;;;;;;;;;;-3.80;99.90;;;;;;5063597;28;19909;-87
2021/12/23 06:22:18;;;;;;;;;;;-3.80;99.90;;;;;;5067370;28;20287;-84
2021/12/23 06:24:46;;;;;;;;;;;-3.90;99.90;;;;;;5063796;28;19915;-84
2021/12/23 06:27:12;;;;;;;;;;;-4.00;99.90;;;;;;5067863;28;19908;-86
2021/12/23 06:29:37;;;;;;;;;;;-4.00;99.90;;;;;;5066664;28;20000;-83
2021/12/23 06:32:03;;;;;;;;;;;-3.90;99.90;;;;;;5070074;28;20364;-89
2021/12/23 06:34:28;;;;;;;;;;;-4.00;99.90;;;;;;5062480;28;19913;-89
2021/12/23 06:36:54;;;;;;;;;;;-4.10;99.90;;;;;;5071420;28;20391;-84
2021/12/23 06:39:20;;;;;;;;;;;-4.00;99.90;;;;;;5063997;28;20295;-87
2021/12/23 06:41:45;;;;;;;;;;;-4.00;99.90;;;;;;5067012;28;20421;-85
2021/12/23 06:44:11;;;;;;;;;;;-4.10;99.90;;;;;;5070551;28;20333;-86
2021/12/23 06:46:36;;;;;;;;;;;-4.20;99.90;;;;;;5070182;28;20015;-87
2021/12/23 06:49:02;;;;;;;;;;;-4.10;99.90;;;;;;5064437;28;20357;-79
2021/12/23 06:51:28;;;;;;;;;;;-4.10;99.90;;;;;;5062268;28;20008;-85
2021/12/23 06:53:54;;;;;;;;;;;-4.10;99.90;;;;;;5066089;28;19916;-88
2021/12/23 06:56:19;;;;;;;;;;;-4.20;99.90;;;;;;5062221;28;20338;-88
2021/12/23 06:58:49;;;;;;;;;;;-4.10;99.90;;;;;;5060615;28;19921;-88
2021/12/23 07:01:17;;;;;;;;;;;-4.10;99.90;;;;;;5048177;28;20413;-85
2021/12/23 07:06:23;;;;;;;;;;;-4.20;99.90;;;;;;5063915;28;19924;-88
2021/12/23 07:08:49;;;;;;;;;;;-4.10;99.90;;;;;;5070704;28;19951;-85
2021/12/23 07:11:15;;;;;;;;;;;-4.10;99.90;;;;;;5064223;28;20010;-89
2021/12/23 07:13:40;;;;;;;;;;;-4.10;99.90;;;;;;5059662;28;19908;-87
2021/12/23 07:16:06;;;;;;;;;;;-4.10;99.90;;;;;;5059651;28;19908;-89
2021/12/23 07:18:31;;;;;;;;;;;-4.00;99.90;;;;;;5065499;28;19964;-86
2021/12/23 07:20:57;;;;;;;;;;;-4.00;99.90;;;;;;5066542;28;19916;-88
2021/12/23 07:23:23;;;;;;;;;;;-3.90;99.90;;;;;;5042087;28;19925;-85
2021/12/23 07:25:48;;;;;;;;;;;-3.90;99.90;;;;;;5062594;28;20291;-88
2021/12/23 07:28:14;;;;;;;;;;;-3.90;99.90;;;;;;5061694;28;19916;-87
2021/12/23 07:30:39;;;;;;;;;;;-3.80;99.90;;;;;;5064291;28;20378;-89
2021/12/23 07:33:05;;;;;;;;;;;-3.80;99.90;;;;;;5062329;28;20260;-87
2021/12/23 07:35:31;;;;;;;;;;;-3.80;99.90;;;;;;5066816;28;19908;-87
2021/12/23 07:38:00;;;;;;;;;;;-3.80;99.90;;;;;;5063646;28;19955;-88
2021/12/23 07:40:26;;;;;;;;;;;-3.80;99.90;;;;;;5061702;28;19912;-88
2021/12/23 07:42:56;;;;;;;;;;;-3.80;99.90;;;;;;5082776;28;19912;-88
2021/12/23 07:45:24;;;;;;;;;;;-3.80;99.90;;;;;;5082779;28;19915;-86
2021/12/23 07:47:50;;;;;;;;;;;-3.70;99.90;;;;;;5062105;28;19912;-86
2021/12/23 07:50:15;;;;;;;;;;;-3.70;99.90;;;;;;5078637;28;19915;-86
2021/12/23 07:52:41;;;;;;;;;;;-3.70;99.90;;;;;;5066653;28;19953;-87
2021/12/23 07:55:07;;;;;;;;;;;-3.70;99.90;;;;;;5085980;28;20363;-90
2021/12/23 07:57:32;;;;;;;;;;;-3.70;99.90;;;;;;5084082;28;19920;-88
2021/12/23 07:59:59;;;;;;;;;;;-3.60;99.90;;;;;;5085472;28;20406;-85
2021/12/23 08:02:26;;;;;;;;;;;-3.60;99.90;;;;;;5082085;28;19919;-86
2021/12/23 08:04:51;;;;;;;;;;;-3.60;99.90;;;;;;5086319;28;19912;-89
2021/12/23 08:07:17;;;;;;;;;;;-3.70;99.90;;;;;;5054551;28;20349;-87
2021/12/23 08:09:43;;;;;;;;;;;-3.50;99.90;;;;;;5068267;28;19912;-88
2021/12/23 08:12:08;;;;;;;;;;;-3.50;99.90;;;;;;5072878;28;19919;-87
2021/12/23 08:14:34;;;;;;;;;;;-3.50;99.90;;;;;;5076057;28;20429;-86
2021/12/23 08:17:00;;;;;;;;;;;-3.50;99.90;;;;;;5071317;28;19982;-87
2021/12/23 08:19:25;;;;;;;;;;;-3.50;99.90;;;;;;5081440;28;19916;-88
2021/12/23 08:21:51;;;;;;;;;;;-3.40;99.90;;;;;;5065853;28;20355;-88
2021/12/23 08:24:16;;;;;;;;;;;-3.40;99.90;;;;;;5080952;28;19911;-87
2021/12/23 08:26:50;;;;;;;;;;;-3.50;99.90;;;;;;5081410;28;20003;-88
2021/12/23 08:29:18;;;;;;;;;;;-3.40;99.90;;;;;;5084548;28;19920;-88
2021/12/23 08:31:43;;;;;;;;;;;-3.30;99.90;;;;;;5087231;28;20309;-87
2021/12/23 08:34:09;;;;;;;;;;;-3.20;99.90;;;;;;5085499;28;19923;-89
2021/12/23 08:36:35;;;;;;;;;;;-3.10;99.90;;;;;;5085925;28;19908;-89
2021/12/23 08:39:01;;;;;;;;;;;-3.00;99.90;;;;;;5084452;28;19908;-86
2021/12/23 08:41:26;;;;;;;;;;;-2.90;99.90;;;;;;5066149;28;19923;-87
2021/12/23 08:43:52;;;;;;;;;;;-2.90;99.90;;;;;;5065515;28;19912;-86
2021/12/23 08:46:17;;;;;;;;;;;-2.90;99.90;;;;;;5065349;28;19912;-88
2021/12/23 08:48:43;;;;;;;;;;;-2.90;99.90;;;;;;5078455;28;19909;-89
2021/12/23 08:51:08;;;;;;;;;;;-2.90;99.90;;;;;;5082330;28;19924;-87
2021/12/23 08:53:34;;;;;;;;;;;-2.80;99.90;;;;;;5081849;28;19909;-87
2021/12/23 08:55:59;;;;;;;;;;;-2.70;99.90;;;;;;5067500;28;19916;-86
2021/12/23 08:58:25;;;;;;;;;;;-2.60;99.90;;;;;;5062536;28;19916;-87
2021/12/23 09:00:50;;;;;;;;;;;-2.60;99.90;;;;;;5082330;28;19974;-86
2021/12/23 09:03:16;;;;;;;;;;;-2.60;99.90;;;;;;5049265;28;19912;-86
2021/12/23 09:05:42;;;;;;;;;;;-2.60;99.90;;;;;;5063976;28;19912;-86
2021/12/23 09:08:08;;;;;;;;;;;-2.60;99.90;;;;;;5081953;28;19915;-85
2021/12/23 09:10:35;;;;;;;;;;;-2.40;99.90;;;;;;5067580;28;20011;-87
2021/12/23 09:13:01;;;;;;;;;;;-2.40;99.90;;;;;;5084740;28;19947;-88
2021/12/23 09:15:26;;;;;;;;;;;-2.30;99.90;;;;;;5062004;28;19973;-88
2021/12/23 09:17:52;;;;;;;;;;;-2.30;99.90;;;;;;5062323;28;20358;-85
2021/12/23 09:20:19;;;;;;;;;;;-2.30;99.90;;;;;;5063893;28;20346;-87
2021/12/23 09:22:45;;;;;;;;;;;-2.10;99.90;;;;;;5087926;28;20369;-85
2021/12/23 09:25:18;;;;;;;;;;;-2.20;99.90;;;;;;5104727;28;19900;-85
2021/12/23 09:27:58;;;;;;;;;;;-2.10;99.90;;;;;;5092342;28;19908;-86
2021/12/23 09:33:09;;;;;;;;;;;-2.10;99.90;;;;;;5084866;28;19918;-86
2021/12/23 09:35:35;;;;;;;;;;;-2.00;99.90;;;;;;5085688;28;19908;-87
2021/12/23 09:38:01;;;;;;;;;;;-2.00;99.90;;;;;;5062351;28;19939;-86
2021/12/23 09:40:29;;;;;;;;;;;-1.90;99.90;;;;;;5081518;28;19915;-88
2021/12/23 09:42:58;;;;;;;;;;;-1.80;99.90;;;;;;5064588;28;19962;-87
2021/12/23 09:45:24;;;;;;;;;;;-1.80;99.90;;;;;;5082852;28;19909;-89
2021/12/23 09:47:49;;;;;;;;;;;-1.80;99.90;;;;;;5081466;28;20386;-87
2021/12/23 09:50:21;;;;;;;;;;;-1.70;99.90;;;;;;5062654;28;19908;-88
2021/12/23 09:52:48;;;;;;;;;;;-1.60;99.90;;;;;;5068338;28;20011;-90
2021/12/23 09:55:14;;;;;;;;;;;-1.60;99.90;;;;;;5089700;28;20056;-87
2021/12/23 09:57:40;;;;;;;;;;;-1.60;99.90;;;;;;5065592;28;20390;-86
2021/12/23 10:00:06;;;;;;;;;;;-1.60;99.90;;;;;;5083844;28;19912;-84
2021/12/23 10:02:32;;;;;;;;;;;-1.50;99.90;;;;;;5087360;28;20014;-87
2021/12/23 10:04:57;;;;;;;;;;;-1.40;99.90;;;;;;5076478;28;20454;-85
2021/12/23 10:07:23;;;;;;;;;;;-1.30;99.90;;;;;;5072498;28;19912;-88
2021/12/23 10:31:30;;;;;;;;;;;-0.60;99.90;;;;;;5083007;28;20444;-88
2021/12/23 10:39:34;;;;;;;;;;;-0.40;99.90;;;;;;5085156;28;20287;-85
2021/12/23 10:42:16;;;;;;;;;;;-0.60;99.90;;;;;;5090327;28;20014;-89
2021/12/23 10:44:53;;;;;;;;;;;-0.50;99.90;;;;;;5086287;28;19912;-86
2021/12/23 10:47:29;;;;;;;;;;;-0.40;99.90;;;;;;5084348;28;19978;-84
2021/12/23 10:49:59;;;;;;;;;;;-0.20;99.90;;;;;;5071438;28;19920;-88
2021/12/23 10:52:29;;;;;;;;;;;-0.30;99.90;;;;;;5085051;28;19935;-86
2021/12/23 11:00:33;;;;;;;;;;;-0.10;99.90;;;;;;5079312;28;20011;-88
2021/12/23 11:03:03;;;;;;;;;;;0.10;99.90;;;;;;5071127;28;19919;-86
2021/12/23 11:05:34;;;;;;;;;;;0.00;99.90;;;;;;5085747;28;19998;-86
2021/12/23 11:43:53;;;;;;;;;;;1.30;99.90;;;;;;5075887;28;19909;-86
2021/12/23 11:46:26;;;;;;;;;;;1.40;99.90;;;;;;5064209;28;20290;-90
2021/12/23 11:48:54;;;;;;;;;;;1.50;99.90;;;;;;5063665;28;19958;-88
2021/12/23 11:52:06;;;;;;;;;;;1.50;99.90;;;;;;5063529;28;19948;-86
2021/12/23 11:54:07;;;;;;;;;;;1.30;99.90;;;;;;5049003;28;19912;-88
2021/12/23 11:56:35;;;;;;;;;;;1.30;99.90;;;;;;5061303;28;20014;-87
2021/12/23 11:59:01;;;;;;;;;;;1.30;99.90;;;;;;5063737;28;19923;-91
2021/12/23 12:01:29;;;;;;;;;;;1.30;99.90;;;;;;5063112;28;19912;-89
2021/12/23 12:04:02;;;;;;;;;;;1.30;99.90;;;;;;5060098;28;19930;-88
2021/12/23 12:06:38;;;;;;;;;;;1.20;99.90;;;;;;5060267;28;19908;-90
2021/12/23 12:09:09;;;;;;;;;;;1.30;99.90;;;;;;5062163;28;19966;-87
2021/12/23 12:11:35;;;;;;;;;;;1.30;99.90;;;;;;5064078;28;19912;-91
2021/12/23 12:14:00;;;;;;;;;;;1.40;99.90;;;;;;5062073;28;20447;-86
2021/12/23 12:16:28;;;;;;;;;;;1.60;99.90;;;;;;5062890;28;19966;-86
2021/12/23 12:18:53;;;;;;;;;;;1.30;99.90;;;;;;5066353;28;19912;-86
2021/12/23 12:21:23;;;;;;;;;;;1.20;99.90;;;;;;5059892;28;19908;-88
2021/12/23 12:24:07;;;;;;;;;;;1.30;99.90;;;;;;5067211;28;19913;-87
2021/12/23 12:26:37;;;;;;;;;;;1.40;99.90;;;;;;5065149;28;19913;-89
2021/12/23 12:29:06;;;;;;;;;;;1.50;99.90;;;;;;5077385;28;19934;-87
2021/12/23 12:31:39;;;;;;;;;;;1.40;99.90;;;;;;5081389;28;19920;-89
2021/12/23 12:34:09;;;;;;;;;;;1.30;99.90;;;;;;5064071;28;19936;-86
2021/12/23 12:36:49;;;;;;;;;;;1.10;99.90;;;;;;5063736;28;19960;-87
2021/12/23 12:39:17;;;;;;;;;;;1.30;99.90;;;;;;5062280;28;19916;-88
2021/12/23 12:41:42;;;;;;;;;;;1.50;99.90;;;;;;5072214;28;19920;-88
2021/12/23 12:44:16;;;;;;;;;;;1.50;99.90;;;;;;5086607;28;19956;-87
2021/12/23 12:46:47;;;;;;;;;;;1.50;99.90;;;;;;5087533;28;19912;-87
2021/12/23 12:49:22;;;;;;;;;;;1.70;99.90;;;;;;5068163;28;19908;-88
2021/12/23 12:51:48;;;;;;;;;;;2.00;99.90;;;;;;5085329;28;19927;-90
2021/12/23 12:54:18;;;;;;;;;;;2.00;99.90;;;;;;5085567;28;19908;-87
2021/12/23 12:56:48;;;;;;;;;;;2.00;99.90;;;;;;5083089;28;19974;-88
2021/12/23 12:59:15;;;;;;;;;;;1.90;99.90;;;;;;5085357;28;19908;-89
2021/12/23 13:01:42;;;;;;;;;;;1.90;99.90;;;;;;5080863;28;20374;-87
2021/12/23 13:04:23;;;;;;;;;;;2.00;99.90;;;;;;5087177;28;19996;-87
2021/12/23 13:06:49;;;;;;;;;;;2.00;99.90;;;;;;5087163;28;20009;-87
2021/12/23 13:09:20;;;;;;;;;;;2.00;99.90;;;;;;5072984;28;20489;-85
2021/12/23 13:11:48;;;;;;;;;;;2.10;99.90;;;;;;5082565;28;19923;-87
2021/12/23 13:14:20;;;;;;;;;;;2.20;99.90;;;;;;5080510;28;19920;-88
2021/12/23 13:16:55;;;;;;;;;;;2.10;99.90;;;;;;5080525;28;19916;-87
2021/12/23 13:19:22;;;;;;;;;;;2.10;99.90;;;;;;5065309;28;19915;-84
2021/12/23 13:21:49;;;;;;;;;;;2.00;99.90;;;;;;5084847;28;19908;-88
2021/12/23 13:24:17;;;;;;;;;;;1.90;99.90;;;;;;5083925;28;19974;-84
2021/12/23 13:26:43;;;;;;;;;;;2.00;99.90;;;;;;5089829;28;19919;-86
2021/12/23 13:29:10;;;;;;;;;;;2.00;99.90;;;;;;5086720;28;20406;-85
2021/12/23 13:31:37;;;;;;;;;;;1.90;99.90;;;;;;5073961;28;19926;-80
2021/12/23 13:34:07;;;;;;;;;;;1.90;99.90;;;;;;5078744;28;20418;-85
2021/12/23 13:36:37;;;;;;;;;;;1.90;99.90;;;;;;5075897;28;19921;-87
2021/12/23 13:39:08;;;;;;;;;;;1.80;99.90;;;;;;5086781;28;19922;-88
2021/12/23 13:41:36;;;;;;;;;;;1.70;99.90;;;;;;5092411;28;19917;-87
2021/12/23 13:44:20;;;;;;;;;;;1.80;99.90;;;;;;5093103;28;19916;-89
2021/12/23 13:46:54;;;;;;;;;;;1.70;99.90;;;;;;5079487;28;19943;-86
2021/12/23 13:49:29;;;;;;;;;;;1.80;99.90;;;;;;5086786;28;19958;-86
2021/12/23 13:51:55;;;;;;;;;;;1.90;99.90;;;;;;5086065;28;19977;-85
2021/12/23 13:54:20;;;;;;;;;;;2.00;99.90;;;;;;5070383;28;20363;-86
2021/12/23 13:56:47;;;;;;;;;;;1.90;99.90;;;;;;5083548;28;19935;-85
2021/12/23 13:59:19;;;;;;;;;;;1.90;99.90;;;;;;5083429;28;19913;-84
2021/12/23 14:01:51;;;;;;;;;;;1.90;99.90;;;;;;5087706;28;19954;-86
2021/12/23 14:04:28;;;;;;;;;;;1.90;99.90;;;;;;5066399;28;19914;-88
2021/12/23 14:06:54;;;;;;;;;;;1.90;99.90;;;;;;5089603;28;19907;-80
2021/12/23 14:09:28;;;;;;;;;;;1.80;99.90;;;;;;5067930;28;20275;-82
2021/12/23 14:11:54;;;;;;;;;;;1.80;99.90;;;;;;5089399;28;19912;-79
2021/12/23 14:14:19;;;;;;;;;;;1.80;99.90;;;;;;5082482;28;20325;-79
2021/12/23 14:16:45;;;;;;;;;;;1.80;99.90;;;;;;5089363;28;19919;-78
2021/12/23 14:19:22;;;;;;;;;;;1.80;99.90;;;;;;5084295;28;19912;-86
2021/12/23 14:24:34;;;;;;;;;;;1.80;99.90;;;;;;5055063;28;19986;-87
2021/12/23 14:26:59;;;;;;;;;;;1.80;99.90;;;;;;5063092;28;19962;-89
2021/12/23 14:29:30;;;;;;;;;;;1.70;99.90;;;;;;5076940;28;19950;-91
2021/12/23 14:31:56;;;;;;;;;;;1.70;99.90;;;;;;5088427;28;19955;-88
2021/12/23 14:34:24;;;;;;;;;;;1.60;99.90;;;;;;5084325;28;19915;-88
2021/12/23 14:36:55;;;;;;;;;;;1.70;99.90;;;;;;5049455;28;20010;-87
2021/12/23 14:39:20;;;;;;;;;;;1.60;99.90;;;;;;5086217;28;19915;-88
2021/12/23 14:41:55;;;;;;;;;;;1.70;99.90;;;;;;5069492;28;19916;-90
2021/12/23 14:44:23;;;;;;;;;;;1.80;99.90;;;;;;5067708;28;19912;-88
2021/12/23 14:46:52;;;;;;;;;;;1.80;99.90;;;;;;5069343;28;19922;-87
2021/12/23 14:50:16;;;;;;;;;;;1.90;99.90;;;;;;5069240;28;19955;-87
2021/12/23 14:52:15;;;;;;;;;;;1.90;99.90;;;;;;5057047;28;19915;-88
2021/12/23 14:54:49;;;;;;;;;;;1.80;99.90;;;;;;5068617;28;20003;-88
2021/12/23 14:57:17;;;;;;;;;;;1.80;99.90;;;;;;5067364;28;20390;-89
2021/12/23 14:59:44;;;;;;;;;;;1.80;99.90;;;;;;5064807;28;20012;-88
2021/12/23 15:02:10;;;;;;;;;;;1.80;99.90;;;;;;5066156;28;19913;-86
2021/12/23 15:04:35;;;;;;;;;;;2.00;99.90;;;;;;5066110;28;20015;-89
2021/12/23 15:07:01;;;;;;;;;;;2.00;99.90;;;;;;5074396;28;19961;-87
2021/12/23 15:09:28;;;;;;;;;;;1.90;99.90;;;;;;5068262;28;20004;-86
2021/12/23 15:11:54;;;;;;;;;;;2.00;99.90;;;;;;5066029;28;19988;-86
2021/12/23 15:14:20;;;;;;;;;;;1.90;99.90;;;;;;5069256;28;19962;-87
2021/12/23 15:16:56;;;;;;;;;;;1.90;99.90;;;;;;5082855;28;19915;-86
2021/12/23 15:19:35;;;;;;;;;;;2.00;99.90;;;;;;5081721;28;19931;-85
2021/12/23 15:22:12;;;;;;;;;;;2.00;99.90;;;;;;5063977;28;19950;-85
2021/12/23 15:24:42;;;;;;;;;;;2.10;99.90;;;;;;5065939;28;20353;-89
2021/12/23 15:27:09;;;;;;;;;;;2.10;99.90;;;;;;5065237;28;20017;-90
2021/12/23 15:29:42;;;;;;;;;;;2.10;99.90;;;;;;5070868;28;20268;-89
2021/12/23 15:32:11;;;;;;;;;;;2.10;99.90;;;;;;5088470;28;20322;-87
2021/12/23 15:34:39;;;;;;;;;;;2.10;99.90;;;;;;5073094;28;19978;-87
2021/12/23 15:37:05;;;;;;;;;;;2.20;99.90;;;;;;5069441;28;19917;-87
2021/12/23 15:39:35;;;;;;;;;;;2.10;99.90;;;;;;5070981;28;20003;-86
2021/12/23 15:42:01;;;;;;;;;;;2.00;99.90;;;;;;5078760;28;19917;-86
2021/12/23 15:44:29;;;;;;;;;;;2.10;99.90;;;;;;5084449;28;19966;-88
2021/12/23 15:46:56;;;;;;;;;;;2.10;99.90;;;;;;5069305;28;19912;-87
2021/12/23 15:49:22;;;;;;;;;;;2.10;99.90;;;;;;5066833;28;19966;-88
2021/12/23 15:51:48;;;;;;;;;;;2.10;99.90;;;;;;5069617;28;20291;-87